sensor_id;sensor_type;location;lat;lon;timestamp;pressure;altitude;pressure_sealevel;temperature
76583;BMP280;65462;52.148;7.940;2023-06-10T00:02:13;100814.81;;;21.45
76583;BMP280;65462;52.148;7.940;2023-06-10T00:04:39;100815.56;;;21.46
76583;BMP280;65462;52.148;7.940;2023-06-10T00:07:05;100805.59;;;21.43
76583;BMP280;65462;52.148;7.940;2023-06-10T00:09:39;100816.75;;;21.41
76583;BMP280;65462;52.148;7.940;2023-06-10T00:12:06;100808.31;;;21.39
76583;BMP280;65462;52.148;7.940;2023-06-10T00:14:33;100810.59;;;21.37
76583;BMP280;65462;52.148;7.940;2023-06-10T00:16:58;100808.69;;;21.34
76583;BMP280;65462;52.148;7.940;2023-06-10T00:19:24;100797.97;;;21.31
76583;BMP280;65462;52.148;7.940;2023-06-10T00:21:55;100804.88;;;21.28
76583;BMP280;65462;52.148;7.940;2023-06-10T00:24:21;100804.53;;;21.26
76583;BMP280;65462;52.148;7.940;2023-06-10T00:26:47;100794.16;;;21.21
76583;BMP280;65462;52.148;7.940;2023-06-10T00:29:12;100795.28;;;21.24
76583;BMP280;65462;52.148;7.940;2023-06-10T00:31:38;100797.63;;;21.18
76583;BMP280;65462;52.148;7.940;2023-06-10T00:34:04;100795.34;;;21.17
76583;BMP280;65462;52.148;7.940;2023-06-10T00:36:29;100794.19;;;21.14
76583;BMP280;65462;52.148;7.940;2023-06-10T00:38:56;100804.19;;;21.10
76583;BMP280;65462;52.148;7.940;2023-06-10T00:41:21;100793.44;;;21.10
76583;BMP280;65462;52.148;7.940;2023-06-10T00:43:46;100808.41;;;21.08
76583;BMP280;65462;52.148;7.940;2023-06-10T00:46:12;100804.97;;;21.04
76583;BMP280;65462;52.148;7.940;2023-06-10T00:48:39;100808.06;;;21.02
76583;BMP280;65462;52.148;7.940;2023-06-10T00:51:05;100807.28;;;20.98
76583;BMP280;65462;52.148;7.940;2023-06-10T00:53:32;100809.59;;;20.96
76583;BMP280;65462;52.148;7.940;2023-06-10T00:55:58;100799.66;;;20.86
76583;BMP280;65462;52.148;7.940;2023-06-10T00:58:24;100804.25;;;20.86
76583;BMP280;65462;52.148;7.940;2023-06-10T01:00:50;100802.72;;;20.88
76583;BMP280;65462;52.148;7.940;2023-06-10T01:03:16;100800.78;;;20.85
76583;BMP280;65462;52.148;7.940;2023-06-10T01:05:42;100808.84;;;20.85
76583;BMP280;65462;52.148;7.940;2023-06-10T01:08:17;100805.03;;;20.79
76583;BMP280;65462;52.148;7.940;2023-06-10T01:10:52;100807.34;;;20.77
76583;BMP280;65462;52.148;7.940;2023-06-10T01:13:19;100814.25;;;20.71
76583;BMP280;65462;52.148;7.940;2023-06-10T01:15:49;100816.56;;;20.69
76583;BMP280;65462;52.148;7.940;2023-06-10T01:18:14;100817.75;;;20.68
76583;BMP280;65462;52.148;7.940;2023-06-10T01:20:41;100805.06;;;20.69
76583;BMP280;65462;52.148;7.940;2023-06-10T01:23:09;100817.34;;;20.66
76583;BMP280;65462;52.148;7.940;2023-06-10T01:25:37;100818.53;;;20.65
76583;BMP280;65462;52.148;7.940;2023-06-10T01:28:27;100825.03;;;20.61
76583;BMP280;65462;52.148;7.940;2023-06-10T01:31:10;100830.78;;;20.59
76583;BMP280;65462;52.148;7.940;2023-06-10T01:33:42;100830.41;;;20.57
76583;BMP280;65462;52.148;7.940;2023-06-10T01:36:08;100827.34;;;20.55
76583;BMP280;65462;52.148;7.940;2023-06-10T01:38:45;100833.84;;;20.51
76583;BMP280;65462;52.148;7.940;2023-06-10T01:41:13;100835.41;;;20.48
76583;BMP280;65462;52.148;7.940;2023-06-10T01:43:39;100833.50;;;20.45
76583;BMP280;65462;52.148;7.940;2023-06-10T01:46:05;100833.88;;;20.40
76583;BMP280;65462;52.148;7.940;2023-06-10T01:48:32;100832.34;;;20.39
76583;BMP280;65462;52.148;7.940;2023-06-10T01:50:58;100831.94;;;20.37
76583;BMP280;65462;52.148;7.940;2023-06-10T01:53:23;100838.06;;;20.34
76583;BMP280;65462;52.148;7.940;2023-06-10T01:55:49;100839.63;;;20.31
76583;BMP280;65462;52.148;7.940;2023-06-10T01:58:14;100844.97;;;20.28
76583;BMP280;65462;52.148;7.940;2023-06-10T02:00:40;100840.78;;;20.27
76583;BMP280;65462;52.148;7.940;2023-06-10T02:03:05;100844.97;;;20.24
76583;BMP280;65462;52.148;7.940;2023-06-10T02:05:31;100842.69;;;20.23
76583;BMP280;65462;52.148;7.940;2023-06-10T02:07:57;100839.22;;;20.19
76583;BMP280;65462;52.148;7.940;2023-06-10T02:10:22;100843.03;;;20.18
76583;BMP280;65462;52.148;7.940;2023-06-10T02:12:48;100853.03;;;20.14
76583;BMP280;65462;52.148;7.940;2023-06-10T02:15:13;100843.81;;;20.11
76583;BMP280;65462;52.148;7.940;2023-06-10T02:17:38;100847.66;;;20.03
76583;BMP280;65462;52.148;7.940;2023-06-10T02:20:05;100854.53;;;20.04
76583;BMP280;65462;52.148;7.940;2023-06-10T02:22:33;100851.47;;;20.02
76583;BMP280;65462;52.148;7.940;2023-06-10T02:24:58;100858.38;;;20.00
76583;BMP280;65462;52.148;7.940;2023-06-10T02:27:24;100853.75;;;19.97
76583;BMP280;65462;52.148;7.940;2023-06-10T02:29:49;100859.50;;;19.92
76583;BMP280;65462;52.148;7.940;2023-06-10T02:32:14;100864.09;;;19.88
76583;BMP280;65462;52.148;7.940;2023-06-10T02:34:40;100859.09;;;19.86
76583;BMP280;65462;52.148;7.940;2023-06-10T02:37:05;100868.31;;;19.82
76583;BMP280;65462;52.148;7.940;2023-06-10T02:39:30;100860.25;;;19.78
76583;BMP280;65462;52.148;7.940;2023-06-10T02:41:56;100862.88;;;19.75
76583;BMP280;65462;52.148;7.940;2023-06-10T02:44:21;100859.41;;;19.71
76583;BMP280;65462;52.148;7.940;2023-06-10T02:46:46;100863.25;;;19.66
76583;BMP280;65462;52.148;7.940;2023-06-10T02:49:12;100863.25;;;19.63
76583;BMP280;65462;52.148;7.940;2023-06-10T02:51:38;100862.44;;;19.59
76583;BMP280;65462;52.148;7.940;2023-06-10T02:54:04;100851.69;;;19.52
76583;BMP280;65462;52.148;7.940;2023-06-10T02:56:30;100853.59;;;19.51
76583;BMP280;65462;52.148;7.940;2023-06-10T02:58:57;100844.78;;;19.47
76583;BMP280;65462;52.148;7.940;2023-06-10T03:01:22;100838.66;;;19.43
76583;BMP280;65462;52.148;7.940;2023-06-10T03:03:47;100838.63;;;19.40
76583;BMP280;65462;52.148;7.940;2023-06-10T03:06:13;100846.63;;;19.36
76583;BMP280;65462;52.148;7.940;2023-06-10T03:08:39;100844.72;;;19.33
76583;BMP280;65462;52.148;7.940;2023-06-10T03:11:05;100849.28;;;19.29
76583;BMP280;65462;52.148;7.940;2023-06-10T03:13:31;100847.72;;;19.24
76583;BMP280;65462;52.148;7.940;2023-06-10T03:15:57;100852.69;;;19.22
76583;BMP280;65462;52.148;7.940;2023-06-10T03:18:26;100844.63;;;19.19
76583;BMP280;65462;52.148;7.940;2023-06-10T03:20:52;100848.84;;;19.16
76583;BMP280;65462;52.148;7.940;2023-06-10T03:23:17;100847.66;;;19.14
76583;BMP280;65462;52.148;7.940;2023-06-10T03:25:43;100849.94;;;19.12
76583;BMP280;65462;52.148;7.940;2023-06-10T03:28:09;100846.84;;;19.06
76583;BMP280;65462;52.148;7.940;2023-06-10T03:30:34;100859.09;;;19.04
76583;BMP280;65462;52.148;7.940;2023-06-10T03:32:59;100857.53;;;18.99
76583;BMP280;65462;52.148;7.940;2023-06-10T03:35:26;100860.94;;;18.96
76583;BMP280;65462;52.148;7.940;2023-06-10T03:37:51;100857.91;;;18.94
76583;BMP280;65462;52.148;7.940;2023-06-10T03:40:16;100863.59;;;18.93
76583;BMP280;65462;52.148;7.940;2023-06-10T03:42:42;100858.22;;;18.89
76583;BMP280;65462;52.148;7.940;2023-06-10T03:45:09;100856.69;;;18.88
76583;BMP280;65462;52.148;7.940;2023-06-10T03:47:35;100859.72;;;18.87
76583;BMP280;65462;52.148;7.940;2023-06-10T03:50:02;100869.69;;;18.86
76583;BMP280;65462;52.148;7.940;2023-06-10T03:52:28;100862.38;;;18.83
76583;BMP280;65462;52.148;7.940;2023-06-10T03:54:54;100866.22;;;18.82
76583;BMP280;65462;52.148;7.940;2023-06-10T03:57:19;100865.03;;;18.80
76583;BMP280;65462;52.148;7.940;2023-06-10T03:59:44;100871.16;;;18.80
76583;BMP280;65462;52.148;7.940;2023-06-10T04:02:09;100867.31;;;18.78
76583;BMP280;65462;52.148;7.940;2023-06-10T04:04:35;100862.72;;;18.75
76583;BMP280;65462;52.148;7.940;2023-06-10T04:07:03;100860.38;;;18.73
76583;BMP280;65462;52.148;7.940;2023-06-10T04:09:28;100865.38;;;18.71
76583;BMP280;65462;52.148;7.940;2023-06-10T04:11:53;100870.31;;;18.69
76583;BMP280;65462;52.148;7.940;2023-06-10T04:14:19;100861.09;;;18.67
76583;BMP280;65462;52.148;7.940;2023-06-10T04:16:44;100868.72;;;18.61
76583;BMP280;65462;52.148;7.940;2023-06-10T04:19:09;100865.63;;;18.59
76583;BMP280;65462;52.148;7.940;2023-06-10T04:21:34;100871.00;;;18.59
76583;BMP280;65462;52.148;7.940;2023-06-10T04:24:01;100878.66;;;18.61
76583;BMP280;65462;52.148;7.940;2023-06-10T04:26:27;100886.69;;;18.61
76583;BMP280;65462;52.148;7.940;2023-06-10T04:28:52;100876.00;;;18.64
76583;BMP280;65462;52.148;7.940;2023-06-10T04:31:18;100879.06;;;18.63
76583;BMP280;65462;52.148;7.940;2023-06-10T04:33:43;100871.41;;;18.65
76583;BMP280;65462;52.148;7.940;2023-06-10T04:36:08;100884.47;;;18.66
76583;BMP280;65462;52.148;7.940;2023-06-10T04:38:34;100882.19;;;18.68
76583;BMP280;65462;52.148;7.940;2023-06-10T04:40:59;100877.97;;;18.71
76583;BMP280;65462;52.148;7.940;2023-06-10T04:43:24;100873.78;;;18.73
76583;BMP280;65462;52.148;7.940;2023-06-10T04:45:50;100876.50;;;18.77
76583;BMP280;65462;52.148;7.940;2023-06-10T04:48:15;100884.94;;;18.79
76583;BMP280;65462;52.148;7.940;2023-06-10T04:50:40;100883.44;;;18.81
76583;BMP280;65462;52.148;7.940;2023-06-10T04:53:06;100876.94;;;18.82
76583;BMP280;65462;52.148;7.940;2023-06-10T04:55:31;100876.56;;;18.87
76583;BMP280;65462;52.148;7.940;2023-06-10T04:57:58;100875.84;;;18.90
76583;BMP280;65462;52.148;7.940;2023-06-10T05:00:23;100873.97;;;18.94
76583;BMP280;65462;52.148;7.940;2023-06-10T05:02:49;100872.47;;;19.00
76583;BMP280;65462;52.148;7.940;2023-06-10T05:05:16;100874.41;;;19.03
76583;BMP280;65462;52.148;7.940;2023-06-10T05:07:42;100878.69;;;19.11
76583;BMP280;65462;52.148;7.940;2023-06-10T05:10:08;100883.69;;;19.16
76583;BMP280;65462;52.148;7.940;2023-06-10T05:12:33;100883.31;;;19.21
76583;BMP280;65462;52.148;7.940;2023-06-10T05:14:58;100881.81;;;19.24
76583;BMP280;65462;52.148;7.940;2023-06-10T05:17:23;100888.38;;;19.30
76583;BMP280;65462;52.148;7.940;2023-06-10T05:19:50;100889.91;;;19.34
76583;BMP280;65462;52.148;7.940;2023-06-10T05:22:16;100880.38;;;19.37
76583;BMP280;65462;52.148;7.940;2023-06-10T05:24:43;100886.13;;;19.43
76583;BMP280;65462;52.148;7.940;2023-06-10T05:27:09;100889.19;;;19.45
76583;BMP280;65462;52.148;7.940;2023-06-10T05:29:35;100886.16;;;19.50
76583;BMP280;65462;52.148;7.940;2023-06-10T05:32:00;100893.47;;;19.53
76583;BMP280;65462;52.148;7.940;2023-06-10T05:34:31;100890.81;;;19.56
76583;BMP280;65462;52.148;7.940;2023-06-10T05:36:56;100896.19;;;19.60
76583;BMP280;65462;52.148;7.940;2023-06-10T05:39:22;100893.13;;;19.65
76583;BMP280;65462;52.148;7.940;2023-06-10T05:41:47;100895.44;;;19.70
76583;BMP280;65462;52.148;7.940;2023-06-10T05:44:12;100905.41;;;19.73
76583;BMP280;65462;52.148;7.940;2023-06-10T05:46:38;100889.31;;;19.73
76583;BMP280;65462;52.148;7.940;2023-06-10T05:49:03;100898.59;;;19.79
76583;BMP280;65462;52.148;7.940;2023-06-10T05:51:28;100899.34;;;19.83
76583;BMP280;65462;52.148;7.940;2023-06-10T05:53:54;100892.06;;;19.87
76583;BMP280;65462;52.148;7.940;2023-06-10T05:56:20;100900.13;;;19.90
76583;BMP280;65462;52.148;7.940;2023-06-10T05:58:47;100888.28;;;19.95
76583;BMP280;65462;52.148;7.940;2023-06-10T06:01:12;100894.41;;;19.99
76583;BMP280;65462;52.148;7.940;2023-06-10T06:03:38;100897.47;;;20.04
76583;BMP280;65462;52.148;7.940;2023-06-10T06:06:03;100887.16;;;20.10
76583;BMP280;65462;52.148;7.940;2023-06-10T06:08:29;100889.84;;;20.17
76583;BMP280;65462;52.148;7.940;2023-06-10T06:10:55;100887.94;;;20.21
76583;BMP280;65462;52.148;7.940;2023-06-10T06:13:20;100891.41;;;20.28
76583;BMP280;65462;52.148;7.940;2023-06-10T06:15:46;100889.84;;;20.34
76583;BMP280;65462;52.148;7.940;2023-06-10T06:18:11;100893.34;;;20.42
76583;BMP280;65462;52.148;7.940;2023-06-10T06:20:37;100898.72;;;20.49
76583;BMP280;65462;52.148;7.940;2023-06-10T06:23:02;100894.88;;;20.57
76583;BMP280;65462;52.148;7.940;2023-06-10T06:25:28;100894.09;;;20.67
76583;BMP280;65462;52.148;7.940;2023-06-10T06:27:53;100894.88;;;20.78
76583;BMP280;65462;52.148;7.940;2023-06-10T06:30:19;100887.94;;;20.88
76583;BMP280;65462;52.148;7.940;2023-06-10T06:32:44;100900.25;;;20.99
76583;BMP280;65462;52.148;7.940;2023-06-10T06:35:10;100903.69;;;21.10
76583;BMP280;65462;52.148;7.940;2023-06-10T06:37:43;100902.88;;;21.20
76583;BMP280;65462;52.148;7.940;2023-06-10T06:40:09;100906.31;;;21.31
76583;BMP280;65462;52.148;7.940;2023-06-10T06:42:34;100908.53;;;21.43
76583;BMP280;65462;52.148;7.940;2023-06-10T06:45:00;100915.81;;;21.57
76583;BMP280;65462;52.148;7.940;2023-06-10T06:47:25;100909.19;;;21.72
76583;BMP280;65462;52.148;7.940;2023-06-10T06:49:51;100912.59;;;21.87
76583;BMP280;65462;52.148;7.940;2023-06-10T06:52:17;100898.31;;;22.00
76583;BMP280;65462;52.148;7.940;2023-06-10T06:54:42;100904.34;;;22.15
76583;BMP280;65462;52.148;7.940;2023-06-10T06:57:08;100912.69;;;22.34
76583;BMP280;65462;52.148;7.940;2023-06-10T06:59:34;100903.72;;;22.51
76583;BMP280;65462;52.148;7.940;2023-06-10T07:01:59;100907.41;;;22.68
76583;BMP280;65462;52.148;7.940;2023-06-10T07:04:25;100899.19;;;22.79
76583;BMP280;65462;52.148;7.940;2023-06-10T07:06:51;100909.03;;;22.99
76583;BMP280;65462;52.148;7.940;2023-06-10T07:09:16;100910.38;;;23.18
76583;BMP280;65462;52.148;7.940;2023-06-10T07:11:42;100902.06;;;23.35
76583;BMP280;65462;52.148;7.940;2023-06-10T07:14:07;100916.09;;;23.53
76583;BMP280;65462;52.148;7.940;2023-06-10T07:16:33;100918.59;;;23.71
76583;BMP280;65462;52.148;7.940;2023-06-10T07:18:58;100921.81;;;23.89
76583;BMP280;65462;52.148;7.940;2023-06-10T07:21:24;100920.00;;;24.06
76583;BMP280;65462;52.148;7.940;2023-06-10T07:23:49;100926.66;;;24.24
76583;BMP280;65462;52.148;7.940;2023-06-10T07:26:17;100924.84;;;24.41
76583;BMP280;65462;52.148;7.940;2023-06-10T07:28:42;100922.28;;;24.57
76583;BMP280;65462;52.148;7.940;2023-06-10T07:31:08;100921.22;;;24.74
76583;BMP280;65462;52.148;7.940;2023-06-10T07:33:33;100926.31;;;24.88
76583;BMP280;65462;52.148;7.940;2023-06-10T07:35:59;100916.75;;;25.03
76583;BMP280;65462;52.148;7.940;2023-06-10T07:38:25;100920.28;;;25.20
76583;BMP280;65462;52.148;7.940;2023-06-10T07:40:51;100913.06;;;25.33
76583;BMP280;65462;52.148;7.940;2023-06-10T07:43:16;100917.78;;;25.48
76583;BMP280;65462;52.148;7.940;2023-06-10T07:45:42;100912.47;;;25.61
76583;BMP280;65462;52.148;7.940;2023-06-10T07:48:08;100914.44;;;25.76
76583;BMP280;65462;52.148;7.940;2023-06-10T07:50:33;100915.63;;;25.91
76583;BMP280;65462;52.148;7.940;2023-06-10T07:52:59;100914.78;;;26.10
76583;BMP280;65462;52.148;7.940;2023-06-10T07:55:24;100917.81;;;26.28
76583;BMP280;65462;52.148;7.940;2023-06-10T07:57:51;100919.75;;;26.44
76583;BMP280;65462;52.148;7.940;2023-06-10T08:00:17;100911.22;;;26.58
76583;BMP280;65462;52.148;7.940;2023-06-10T08:02:43;100916.38;;;26.69
76583;BMP280;65462;52.148;7.940;2023-06-10T08:05:08;100906.75;;;26.80
76583;BMP280;65462;52.148;7.940;2023-06-10T08:07:33;100913.75;;;26.94
76583;BMP280;65462;52.148;7.940;2023-06-10T08:09:58;100913.66;;;27.10
76583;BMP280;65462;52.148;7.940;2023-06-10T08:12:24;100915.88;;;27.27
76583;BMP280;65462;52.148;7.940;2023-06-10T08:14:49;100911.53;;;27.42
76583;BMP280;65462;52.148;7.940;2023-06-10T08:17:15;100915.75;;;27.68
76583;BMP280;65462;52.148;7.940;2023-06-10T08:19:40;100917.56;;;27.84
76583;BMP280;65462;52.148;7.940;2023-06-10T08:22:05;100909.50;;;27.93
76583;BMP280;65462;52.148;7.940;2023-06-10T08:24:31;100910.47;;;27.99
76583;BMP280;65462;52.148;7.940;2023-06-10T08:26:56;100912.41;;;28.11
76583;BMP280;65462;52.148;7.940;2023-06-10T08:29:23;100916.50;;;28.28
76583;BMP280;65462;52.148;7.940;2023-06-10T08:31:48;100915.69;;;28.40
76583;BMP280;65462;52.148;7.940;2023-06-10T08:34:13;100914.53;;;28.50
76583;BMP280;65462;52.148;7.940;2023-06-10T08:36:39;100907.66;;;28.58
76583;BMP280;65462;52.148;7.940;2023-06-10T08:39:04;100920.44;;;28.70
76583;BMP280;65462;52.148;7.940;2023-06-10T08:41:35;100914.91;;;28.83
76583;BMP280;65462;52.148;7.940;2023-06-10T08:44:27;100913.50;;;29.00
76583;BMP280;65462;52.148;7.940;2023-06-10T08:46:53;100912.22;;;29.13
76583;BMP280;65462;52.148;7.940;2023-06-10T08:49:22;100921.19;;;29.32
76583;BMP280;65462;52.148;7.940;2023-06-10T08:51:58;100918.13;;;29.51
76583;BMP280;65462;52.148;7.940;2023-06-10T08:54:27;100928.88;;;29.64
76583;BMP280;65462;52.148;7.940;2023-06-10T08:56:55;100917.22;;;29.72
76583;BMP280;65462;52.148;7.940;2023-06-10T08:59:22;100914.22;;;29.79
76583;BMP280;65462;52.148;7.940;2023-06-10T09:01:49;100908.47;;;29.86
76583;BMP280;65462;52.148;7.940;2023-06-10T09:04:15;100920.44;;;29.89
76583;BMP280;65462;52.148;7.940;2023-06-10T09:06:41;100920.91;;;29.97
76583;BMP280;65462;52.148;7.940;2023-06-10T09:09:06;100919.84;;;30.03
76583;BMP280;65462;52.148;7.940;2023-06-10T09:11:32;100917.25;;;30.09
76583;BMP280;65462;52.148;7.940;2023-06-10T09:13:58;100921.22;;;30.17
76583;BMP280;65462;52.148;7.940;2023-06-10T09:16:27;100922.84;;;30.23
76583;BMP280;65462;52.148;7.940;2023-06-10T09:18:53;100931.81;;;30.33
76583;BMP280;65462;52.148;7.940;2023-06-10T09:21:24;100935.31;;;30.42
76583;BMP280;65462;52.148;7.940;2023-06-10T09:23:50;100923.31;;;30.49
76583;BMP280;65462;52.148;7.940;2023-06-10T09:26:15;100927.09;;;30.51
76583;BMP280;65462;52.148;7.940;2023-06-10T09:28:43;100924.81;;;30.59
76583;BMP280;65462;52.148;7.940;2023-06-10T09:31:09;100925.41;;;30.63
76583;BMP280;65462;52.148;7.940;2023-06-10T09:33:38;100929.03;;;30.69
76583;BMP280;65462;52.148;7.940;2023-06-10T09:36:04;100929.19;;;30.74
76583;BMP280;65462;52.148;7.940;2023-06-10T09:38:32;100931.13;;;30.83
76583;BMP280;65462;52.148;7.940;2023-06-10T09:40:58;100929.00;;;30.87
76583;BMP280;65462;52.148;7.940;2023-06-10T09:43:41;100924.13;;;30.91
76583;BMP280;65462;52.148;7.940;2023-06-10T09:46:14;100930.16;;;30.95
76583;BMP280;65462;52.148;7.940;2023-06-10T09:48:45;100924.56;;;30.98
76583;BMP280;65462;52.148;7.940;2023-06-10T09:51:11;100920.28;;;30.97
76583;BMP280;65462;52.148;7.940;2023-06-10T09:53:37;100919.72;;;30.93
76583;BMP280;65462;52.148;7.940;2023-06-10T09:56:02;100918.50;;;30.94
76583;BMP280;65462;52.148;7.940;2023-06-10T09:58:39;100924.28;;;30.96
76583;BMP280;65462;52.148;7.940;2023-06-10T10:01:09;100923.78;;;30.98
76583;BMP280;65462;52.148;7.940;2023-06-10T10:06:11;100925.75;;;31.06
76583;BMP280;65462;52.148;7.940;2023-06-10T10:08:36;100913.41;;;31.11
76583;BMP280;65462;52.148;7.940;2023-06-10T10:11:02;100919.00;;;31.16
76583;BMP280;65462;52.148;7.940;2023-06-10T10:13:28;100916.69;;;31.24
76583;BMP280;65462;52.148;7.940;2023-06-10T10:15:56;100919.72;;;31.26
76583;BMP280;65462;52.148;7.940;2023-06-10T10:18:25;100925.47;;;31.28
76583;BMP280;65462;52.148;7.940;2023-06-10T10:20:57;100925.31;;;31.31
76583;BMP280;65462;52.148;7.940;2023-06-10T10:23:31;100923.91;;;31.36
76583;BMP280;65462;52.148;7.940;2023-06-10T10:26:00;100912.22;;;31.35
76583;BMP280;65462;52.148;7.940;2023-06-10T10:28:32;100913.75;;;31.36
76583;BMP280;65462;52.148;7.940;2023-06-10T10:31:07;100921.78;;;31.40
76583;BMP280;65462;52.148;7.940;2023-06-10T10:33:42;100926.31;;;31.43
76583;BMP280;65462;52.148;7.940;2023-06-10T10:36:10;100918.69;;;31.47
76583;BMP280;65462;52.148;7.940;2023-06-10T10:38:36;100919.91;;;31.46
76583;BMP280;65462;52.148;7.940;2023-06-10T10:41:02;100918.13;;;31.43
76583;BMP280;65462;52.148;7.940;2023-06-10T10:43:28;100921.91;;;31.45
76583;BMP280;65462;52.148;7.940;2023-06-10T10:46:01;100921.44;;;31.47
76583;BMP280;65462;52.148;7.940;2023-06-10T10:48:38;100915.97;;;31.47
76583;BMP280;65462;52.148;7.940;2023-06-10T10:51:03;100917.66;;;31.44
76583;BMP280;65462;52.148;7.940;2023-06-10T10:53:29;100914.44;;;31.46
76583;BMP280;65462;52.148;7.940;2023-06-10T10:56:09;100912.91;;;31.45
76583;BMP280;65462;52.148;7.940;2023-06-10T10:58:37;100924.78;;;31.42
76583;BMP280;65462;52.148;7.940;2023-06-10T11:01:11;100919.16;;;31.45
76583;BMP280;65462;52.148;7.940;2023-06-10T11:03:45;100914.63;;;31.42
76583;BMP280;65462;52.148;7.940;2023-06-10T11:06:15;100911.59;;;31.40
76583;BMP280;65462;52.148;7.940;2023-06-10T11:11:35;100914.50;;;31.37
76583;BMP280;65462;52.148;7.940;2023-06-10T11:14:26;100906.31;;;31.37
76583;BMP280;65462;52.148;7.940;2023-06-10T11:16:56;100898.88;;;31.37
76583;BMP280;65462;52.148;7.940;2023-06-10T11:19:32;100900.84;;;31.37
76583;BMP280;65462;52.148;7.940;2023-06-10T11:21:59;100895.09;;;31.35
76583;BMP280;65462;52.148;7.940;2023-06-10T11:24:25;100892.34;;;31.35
76583;BMP280;65462;52.148;7.940;2023-06-10T11:26:51;100890.34;;;31.35
76583;BMP280;65462;52.148;7.940;2023-06-10T11:29:16;100887.44;;;31.39
76583;BMP280;65462;52.148;7.940;2023-06-10T11:31:48;100884.53;;;31.42
76583;BMP280;65462;52.148;7.940;2023-06-10T11:34:15;100879.38;;;31.44
76583;BMP280;65462;52.148;7.940;2023-06-10T11:36:43;100888.63;;;31.47
76583;BMP280;65462;52.148;7.940;2023-06-10T11:39:11;100889.22;;;31.51
76583;BMP280;65462;52.148;7.940;2023-06-10T11:41:37;100888.38;;;31.59
76583;BMP280;65462;52.148;7.940;2023-06-10T11:44:07;100890.59;;;31.70
76583;BMP280;65462;52.148;7.940;2023-06-10T11:46:33;100892.69;;;31.75
76583;BMP280;65462;52.148;7.940;2023-06-10T11:49:00;100883.53;;;31.78
76583;BMP280;65462;52.148;7.940;2023-06-10T11:51:27;100894.00;;;31.79
76583;BMP280;65462;52.148;7.940;2023-06-10T11:53:53;100882.13;;;31.82
76583;BMP280;65462;52.148;7.940;2023-06-10T11:56:22;100892.91;;;31.86
76583;BMP280;65462;52.148;7.940;2023-06-10T11:58:53;100891.47;;;31.90
76583;BMP280;65462;52.148;7.940;2023-06-10T12:01:20;100888.88;;;31.96
76583;BMP280;65462;52.148;7.940;2023-06-10T12:03:46;100888.75;;;32.05
76583;BMP280;65462;52.148;7.940;2023-06-10T12:06:12;100881.69;;;32.13
76583;BMP280;65462;52.148;7.940;2023-06-10T12:08:41;100890.28;;;32.21
76583;BMP280;65462;52.148;7.940;2023-06-10T12:11:07;100891.13;;;32.27
76583;BMP280;65462;52.148;7.940;2023-06-10T12:13:32;100889.44;;;32.29
76583;BMP280;65462;52.148;7.940;2023-06-10T12:16:08;100880.28;;;32.32
76583;BMP280;65462;52.148;7.940;2023-06-10T12:18:34;100878.09;;;32.36
76583;BMP280;65462;52.148;7.940;2023-06-10T12:20:59;100878.38;;;32.38
76583;BMP280;65462;52.148;7.940;2023-06-10T12:23:26;100878.94;;;32.42
76583;BMP280;65462;52.148;7.940;2023-06-10T12:25:53;100883.00;;;32.47
76583;BMP280;65462;52.148;7.940;2023-06-10T12:28:23;100878.38;;;32.53
76583;BMP280;65462;52.148;7.940;2023-06-10T12:30:49;100882.16;;;32.55
76583;BMP280;65462;52.148;7.940;2023-06-10T12:33:16;100882.72;;;32.59
76583;BMP280;65462;52.148;7.940;2023-06-10T12:35:52;100876.75;;;32.61
76583;BMP280;65462;52.148;7.940;2023-06-10T12:38:24;100878.06;;;32.65
76583;BMP280;65462;52.148;7.940;2023-06-10T12:40:52;100874.88;;;32.67
76583;BMP280;65462;52.148;7.940;2023-06-10T12:43:22;100879.19;;;32.73
76583;BMP280;65462;52.148;7.940;2023-06-10T12:45:48;100876.53;;;32.79
76583;BMP280;65462;52.148;7.940;2023-06-10T12:48:21;100882.09;;;32.84
76583;BMP280;65462;52.148;7.940;2023-06-10T12:50:51;100881.41;;;32.89
76583;BMP280;65462;52.148;7.940;2023-06-10T12:53:17;100875.00;;;32.92
76583;BMP280;65462;52.148;7.940;2023-06-10T12:55:43;100878.78;;;32.95
76583;BMP280;65462;52.148;7.940;2023-06-10T12:58:10;100875.34;;;33.00
76583;BMP280;65462;52.148;7.940;2023-06-10T13:00:35;100865.88;;;33.01
76583;BMP280;65462;52.148;7.940;2023-06-10T13:03:01;100873.44;;;33.06
76583;BMP280;65462;52.148;7.940;2023-06-10T13:05:27;100874.19;;;33.06
76583;BMP280;65462;52.148;7.940;2023-06-10T13:07:54;100870.03;;;33.11
76583;BMP280;65462;52.148;7.940;2023-06-10T13:10:20;100866.59;;;33.16
76583;BMP280;65462;52.148;7.940;2023-06-10T13:12:46;100868.88;;;33.17
76583;BMP280;65462;52.148;7.940;2023-06-10T13:15:12;100864.88;;;33.18
76583;BMP280;65462;52.148;7.940;2023-06-10T13:17:37;100859.16;;;33.22
76583;BMP280;65462;52.148;7.940;2023-06-10T13:20:03;100861.72;;;33.25
76583;BMP280;65462;52.148;7.940;2023-06-10T13:22:31;100858.97;;;33.25
76583;BMP280;65462;52.148;7.940;2023-06-10T13:25:01;100858.22;;;33.25
76583;BMP280;65462;52.148;7.940;2023-06-10T13:27:26;100858.97;;;33.25
76583;BMP280;65462;52.148;7.940;2023-06-10T13:29:52;100854.53;;;33.28
76583;BMP280;65462;52.148;7.940;2023-06-10T13:32:17;100851.78;;;33.28
76583;BMP280;65462;52.148;7.940;2023-06-10T13:34:43;100843.28;;;33.26
76583;BMP280;65462;52.148;7.940;2023-06-10T13:37:08;100847.25;;;33.25
76583;BMP280;65462;52.148;7.940;2023-06-10T13:39:33;100842.28;;;33.23
76583;BMP280;65462;52.148;7.940;2023-06-10T13:41:58;100846.72;;;33.21
76583;BMP280;65462;52.148;7.940;2023-06-10T13:44:24;100841.44;;;33.17
76583;BMP280;65462;52.148;7.940;2023-06-10T13:46:49;100843.16;;;33.15
76583;BMP280;65462;52.148;7.940;2023-06-10T13:49:14;100840.31;;;33.09
76583;BMP280;65462;52.148;7.940;2023-06-10T13:51:40;100831.25;;;33.03
76583;BMP280;65462;52.148;7.940;2023-06-10T13:54:05;100836.50;;;33.01
76583;BMP280;65462;52.148;7.940;2023-06-10T13:56:30;100836.72;;;32.98
76583;BMP280;65462;52.148;7.940;2023-06-10T13:58:56;100820.44;;;32.94
76583;BMP280;65462;52.148;7.940;2023-06-10T14:01:21;100827.38;;;32.90